Time;durP1;ratioP1;P1;durP2;ratioP2;P2;SDS_P1;SDS_P2;PMS_P1;PMS_P2;Temp;Humidity;BMP_temperature;BMP_pressure;BME280_temperature;BME280_humidity;BME280_pressure;Samples;Min_cycle;Max_cycle;Signal;HPM_P1;HPM_P2
2022/03/24 00:01:48;;;;;;;35.50;26.02;;;6.60;99.90;;;;;;5051908;28;20032;-71
2022/03/24 00:04:13;;;;;;;39.28;28.23;;;6.60;99.90;;;;;;5051441;28;20045;-71
2022/03/24 00:06:39;;;;;;;35.90;27.73;;;6.60;99.90;;;;;;5055127;28;20075;-71
2022/03/24 00:09:05;;;;;;;37.50;26.20;;;6.60;99.90;;;;;;5041082;28;20050;-71
2022/03/24 00:11:31;;;;;;;29.02;24.48;;;6.60;99.90;;;;;;5053092;28;20520;-71
2022/03/24 00:13:57;;;;;;;31.85;23.15;;;6.50;99.90;;;;;;5052449;28;20045;-71
2022/03/24 00:16:23;;;;;;;36.83;23.65;;;6.50;99.90;;;;;;5072768;28;20036;-71
2022/03/24 00:18:50;;;;;;;32.78;24.23;;;6.50;99.90;;;;;;5043776;28;20044;-71
2022/03/24 00:21:16;;;;;;;31.67;24.50;;;6.40;99.90;;;;;;5053854;28;20044;-71
2022/03/24 00:23:43;;;;;;;37.05;25.35;;;6.40;99.90;;;;;;5055929;28;20036;-71
2022/03/24 00:26:08;;;;;;;37.15;24.50;;;6.30;99.90;;;;;;5052460;28;20045;-70
2022/03/24 00:28:34;;;;;;;32.63;26.63;;;6.30;99.90;;;;;;5052994;28;20542;-71
2022/03/24 00:31:01;;;;;;;37.28;28.83;;;6.30;99.90;;;;;;5053198;28;20036;-71
2022/03/24 00:33:28;;;;;;;36.30;26.58;;;6.20;99.90;;;;;;5050899;28;20063;-76
2022/03/24 00:35:54;;;;;;;42.30;30.40;;;6.20;99.90;;;;;;5056234;28;20051;-71
2022/03/24 00:38:21;;;;;;;42.55;30.23;;;6.20;99.90;;;;;;5048921;28;20044;-71
2022/03/24 00:40:48;;;;;;;42.65;30.58;;;6.20;99.90;;;;;;5046468;28;20036;-70
2022/03/24 00:43:14;;;;;;;43.05;29.25;;;6.20;99.90;;;;;;5053000;28;20047;-71
2022/03/24 00:45:40;;;;;;;38.63;28.48;;;6.20;99.90;;;;;;5054403;28;20055;-71
2022/03/24 00:48:07;;;;;;;38.38;29.48;;;6.10;99.90;;;;;;5048268;28;20029;-71
2022/03/24 00:50:33;;;;;;;38.53;27.55;;;6.00;99.90;;;;;;5050293;28;20037;-71
2022/03/24 00:52:58;;;;;;;38.75;27.75;;;5.90;99.90;;;;;;5051126;28;20047;-71
2022/03/24 00:55:25;;;;;;;40.00;29.88;;;5.90;99.90;;;;;;5056981;28;20084;-71
2022/03/24 00:57:54;;;;;;;42.95;30.70;;;5.80;99.90;;;;;;5052644;28;20041;-70
2022/03/24 01:00:22;;;;;;;40.30;32.95;;;5.80;99.90;;;;;;5053246;28;20052;-71
2022/03/24 01:02:49;;;;;;;44.45;33.05;;;5.80;99.90;;;;;;5065337;28;20090;-71
2022/03/24 01:05:28;;;;;;;42.13;32.38;;;5.80;99.90;;;;;;5050835;28;20131;-71
2022/03/24 01:07:55;;;;;;;45.25;32.15;;;5.80;99.90;;;;;;5051559;28;20064;-71
2022/03/24 01:10:22;;;;;;;37.75;28.65;;;5.80;99.90;;;;;;5055744;28;20047;-71
2022/03/24 01:12:49;;;;;;;41.78;30.65;;;5.80;99.90;;;;;;5036401;28;20132;-71
2022/03/24 01:15:17;;;;;;;29.60;24.17;;;5.70;99.90;;;;;;5054800;28;20514;-71
2022/03/24 01:17:44;;;;;;;34.08;24.85;;;5.70;99.90;;;;;;5053061;28;20099;-71
2022/03/24 01:20:11;;;;;;;28.63;22.58;;;5.60;99.90;;;;;;5050334;28;20044;-71
2022/03/24 01:22:37;;;;;;;31.60;23.77;;;5.50;99.90;;;;;;5049178;28;20068;-71
2022/03/24 01:25:05;;;;;;;31.38;22.58;;;5.40;99.90;;;;;;5034813;28;20139;-71
2022/03/24 01:27:30;;;;;;;33.15;23.50;;;5.40;99.90;;;;;;5035756;28;20044;-71
2022/03/24 01:29:57;;;;;;;33.15;24.65;;;5.30;99.90;;;;;;5055158;28;20044;-71
2022/03/24 01:32:26;;;;;;;39.88;27.40;;;5.30;99.90;;;;;;5050678;28;20032;-71
2022/03/24 01:34:52;;;;;;;36.03;26.67;;;5.20;99.90;;;;;;5055450;28;20064;-71
2022/03/24 01:37:18;;;;;;;32.45;23.63;;;5.20;99.90;;;;;;5051427;28;20060;-71
2022/03/24 01:39:43;;;;;;;39.35;24.23;;;5.10;99.90;;;;;;5053697;28;20074;-71
2022/03/24 01:42:09;;;;;;;32.97;25.00;;;5.10;99.90;;;;;;5054986;28;20051;-72
2022/03/24 01:44:35;;;;;;;37.13;26.30;;;5.00;99.90;;;;;;5049702;28;20090;-71
2022/03/24 01:47:02;;;;;;;37.33;26.63;;;5.00;99.90;;;;;;5057042;28;20135;-71
2022/03/24 01:49:30;;;;;;;41.00;28.33;;;4.90;99.90;;;;;;5055155;28;20110;-71
2022/03/24 01:51:56;;;;;;;37.63;28.75;;;5.00;99.90;;;;;;5045512;28;20049;-71
2022/03/24 01:54:23;;;;;;;36.47;27.33;;;5.00;99.90;;;;;;5072008;28;20040;-71
2022/03/24 01:56:49;;;;;;;40.47;28.40;;;5.00;99.90;;;;;;5052632;28;20040;-71
2022/03/24 01:59:17;;;;;;;38.03;28.08;;;5.00;99.90;;;;;;5053459;28;20037;-71
2022/03/24 02:01:44;;;;;;;38.85;30.23;;;5.00;99.90;;;;;;5063882;28;20634;-70
2022/03/24 02:04:10;;;;;;;39.20;28.20;;;5.00;99.90;;;;;;5056990;28;20142;-71
2022/03/24 02:06:36;;;;;;;33.00;26.63;;;5.10;99.90;;;;;;5055087;28;20032;-71
2022/03/24 02:09:04;;;;;;;34.90;25.80;;;5.10;99.90;;;;;;5055855;28;20043;-71
2022/03/24 02:11:30;;;;;;;35.97;27.45;;;5.10;99.90;;;;;;5053034;28;20090;-71
2022/03/24 02:13:57;;;;;;;46.72;32.60;;;5.00;99.90;;;;;;5054026;28;20039;-71
2022/03/24 02:16:27;;;;;;;42.28;31.08;;;5.10;99.90;;;;;;5055513;28;20138;-71
2022/03/24 02:18:59;;;;;;;41.35;30.35;;;5.10;99.90;;;;;;5044843;28;20075;-71
2022/03/24 02:21:28;;;;;;;43.00;29.33;;;5.10;99.90;;;;;;5056176;28;20053;-71
2022/03/24 02:23:54;;;;;;;43.85;31.08;;;5.10;99.90;;;;;;5052494;28;20048;-71
2022/03/24 02:26:19;;;;;;;50.60;34.97;;;5.10;99.90;;;;;;5055409;28;20425;-71
2022/03/24 02:28:45;;;;;;;46.58;32.53;;;5.00;99.90;;;;;;5056760;28;20420;-70
2022/03/24 02:31:12;;;;;;;43.45;29.98;;;5.00;99.90;;;;;;5073306;28;20459;-71
2022/03/24 02:33:38;;;;;;;43.63;32.13;;;4.90;99.90;;;;;;5052321;28;20044;-71
2022/03/24 02:36:05;;;;;;;36.97;29.20;;;4.90;99.90;;;;;;5061701;28;20044;-71
2022/03/24 02:38:32;;;;;;;46.03;31.73;;;4.90;99.90;;;;;;5057712;28;20040;-71
2022/03/24 02:40:58;;;;;;;38.08;30.27;;;4.80;99.90;;;;;;5060008;28;20052;-71
2022/03/24 02:43:24;;;;;;;44.17;32.13;;;4.80;99.90;;;;;;5054986;28;20059;-70
2022/03/24 02:45:50;;;;;;;38.92;30.55;;;4.80;99.90;;;;;;5055288;28;20051;-71
2022/03/24 02:48:16;;;;;;;45.05;31.92;;;4.80;99.90;;;;;;5075101;28;20619;-71
2022/03/24 02:50:43;;;;;;;43.35;31.25;;;4.80;99.90;;;;;;5056432;28;20082;-71
2022/03/24 02:53:09;;;;;;;44.88;31.98;;;4.70;99.90;;;;;;5057883;28;20119;-71
2022/03/24 02:55:35;;;;;;;42.17;32.30;;;4.70;99.90;;;;;;5058529;28;20039;-71
2022/03/24 02:58:00;;;;;;;50.60;34.47;;;4.70;99.90;;;;;;5053707;28;20044;-71
2022/03/24 03:00:27;;;;;;;46.67;35.42;;;4.70;99.90;;;;;;5054821;28;20109;-71
2022/03/24 03:02:53;;;;;;;50.05;33.53;;;4.60;99.90;;;;;;5053084;28;20044;-71
2022/03/24 03:05:20;;;;;;;47.92;34.70;;;4.60;99.90;;;;;;5052536;28;20051;-71
2022/03/24 03:07:46;;;;;;;46.83;33.50;;;4.50;99.90;;;;;;5054468;28;20032;-71
2022/03/24 03:10:12;;;;;;;44.80;32.70;;;4.50;99.90;;;;;;5052725;28;20040;-71
2022/03/24 03:12:38;;;;;;;47.58;31.73;;;4.50;99.90;;;;;;5055846;28;20107;-71
2022/03/24 03:15:07;;;;;;;40.38;27.48;;;4.50;99.90;;;;;;5051137;28;20037;-71
2022/03/24 03:17:36;;;;;;;37.78;27.67;;;4.40;99.90;;;;;;5058239;28;20044;-71
2022/03/24 03:20:03;;;;;;;41.20;29.45;;;4.40;99.90;;;;;;5055138;28;20036;-71
2022/03/24 03:22:29;;;;;;;41.83;30.52;;;4.40;99.90;;;;;;5049650;28;20040;-70
2022/03/24 03:24:56;;;;;;;43.88;32.33;;;4.40;99.90;;;;;;5053827;28;20041;-71
2022/03/24 03:27:21;;;;;;;43.92;31.45;;;4.30;99.90;;;;;;5053322;28;20032;-71
2022/03/24 03:29:48;;;;;;;44.38;31.50;;;4.30;99.90;;;;;;5053648;28;20036;-70
2022/03/24 03:32:13;;;;;;;44.22;31.70;;;4.20;99.90;;;;;;5054171;28;20151;-71
2022/03/24 03:34:41;;;;;;;45.50;33.92;;;4.20;99.90;;;;;;5056048;28;20139;-71
2022/03/24 03:37:08;;;;;;;46.67;33.33;;;4.20;99.90;;;;;;5055641;28;20489;-71
2022/03/24 03:39:34;;;;;;;41.85;32.80;;;4.20;99.90;;;;;;5053020;28;20093;-70
2022/03/24 03:42:00;;;;;;;44.97;32.78;;;4.20;99.90;;;;;;5055075;28;20055;-71
2022/03/24 03:44:26;;;;;;;46.53;34.20;;;4.10;99.90;;;;;;5031525;28;20041;-71
2022/03/24 03:46:53;;;;;;;51.80;35.88;;;4.10;99.90;;;;;;5058038;28;20041;-71
2022/03/24 03:49:19;;;;;;;47.60;35.22;;;4.10;99.90;;;;;;5073029;28;20060;-71
2022/03/24 03:51:45;;;;;;;54.20;37.05;;;4.10;99.90;;;;;;5060756;28;20032;-71
2022/03/24 03:54:11;;;;;;;51.22;35.83;;;4.10;99.90;;;;;;5052003;28;20119;-71
2022/03/24 03:56:37;;;;;;;51.28;35.95;;;4.00;99.90;;;;;;5050275;28;20481;-71
2022/03/24 03:59:03;;;;;;;42.47;32.15;;;4.00;99.90;;;;;;5049500;28;20044;-71
2022/03/24 04:01:30;;;;;;;52.60;36.95;;;4.00;99.90;;;;;;5040939;28;20041;-71
2022/03/24 04:03:57;;;;;;;52.03;36.17;;;4.10;99.90;;;;;;5051951;28;20040;-71
2022/03/24 04:06:24;;;;;;;51.15;37.63;;;4.10;99.90;;;;;;5053228;28;20499;-71
2022/03/24 04:08:50;;;;;;;49.72;36.85;;;4.10;99.90;;;;;;5044223;28;20044;-71
2022/03/24 04:11:15;;;;;;;57.20;39.90;;;4.00;99.90;;;;;;5056588;28;20036;-71
2022/03/24 04:13:43;;;;;;;49.22;37.42;;;4.00;99.90;;;;;;5034977;28;20116;-71
2022/03/24 04:16:13;;;;;;;46.78;34.42;;;4.00;99.90;;;;;;5050056;28;20044;-70
2022/03/24 04:18:44;;;;;;;49.65;36.45;;;4.00;99.90;;;;;;5051016;28;20090;-71
2022/03/24 04:21:11;;;;;;;49.08;35.90;;;4.00;99.90;;;;;;5056374;28;20044;-71
2022/03/24 04:23:38;;;;;;;51.42;36.72;;;3.90;99.90;;;;;;5055704;28;20060;-71
2022/03/24 04:26:05;;;;;;;53.72;36.47;;;3.90;99.90;;;;;;5037253;28;20040;-71
2022/03/24 04:28:32;;;;;;;53.40;36.65;;;3.90;99.90;;;;;;5036227;28;20558;-71
2022/03/24 04:30:58;;;;;;;55.22;37.67;;;3.90;99.90;;;;;;5069710;28;20045;-70
2022/03/24 04:33:24;;;;;;;53.88;37.42;;;3.80;99.90;;;;;;5054843;28;20048;-70
2022/03/24 04:35:50;;;;;;;50.72;38.13;;;3.80;99.90;;;;;;5055155;28;20096;-71
2022/03/24 04:38:17;;;;;;;62.75;37.97;;;3.80;99.90;;;;;;5058795;28;20044;-71
2022/03/24 04:40:42;;;;;;;50.05;34.92;;;3.80;99.90;;;;;;5054707;28;20067;-71
2022/03/24 04:43:08;;;;;;;47.15;35.42;;;3.80;99.90;;;;;;5052689;28;20407;-71
2022/03/24 04:45:34;;;;;;;48.00;33.15;;;3.70;99.90;;;;;;5053548;28;20052;-71
2022/03/24 04:48:01;;;;;;;46.03;34.70;;;3.80;99.90;;;;;;5052762;28;20055;-71
2022/03/24 04:50:27;;;;;;;54.50;35.58;;;3.70;99.90;;;;;;5033746;28;20044;-71
2022/03/24 04:52:53;;;;;;;45.22;34.10;;;3.70;99.90;;;;;;5035798;28;20523;-70
2022/03/24 04:55:19;;;;;;;44.33;32.70;;;3.70;99.90;;;;;;5053567;28;20048;-71
2022/03/24 04:57:45;;;;;;;41.13;30.90;;;3.60;99.90;;;;;;5047086;28;20048;-71
2022/03/24 05:00:12;;;;;;;50.22;36.65;;;3.60;99.90;;;;;;5067626;28;20044;-70
2022/03/24 05:02:39;;;;;;;42.13;32.22;;;3.60;99.90;;;;;;5051888;28;20112;-71
2022/03/24 05:05:06;;;;;;;49.97;37.05;;;3.50;99.90;;;;;;5053037;28;20127;-71
2022/03/24 05:07:32;;;;;;;56.15;39.58;;;3.50;99.90;;;;;;5052169;28;20048;-70
2022/03/24 05:09:57;;;;;;;63.15;41.10;;;3.40;99.90;;;;;;5049992;28;20051;-69
2022/03/24 05:12:23;;;;;;;62.42;43.70;;;3.40;99.90;;;;;;5039030;28;20044;-71
2022/03/24 05:14:50;;;;;;;63.40;45.33;;;3.40;99.90;;;;;;5054324;28;20033;-71
2022/03/24 05:17:17;;;;;;;63.45;43.67;;;3.40;99.90;;;;;;5054822;28;20033;-71
2022/03/24 05:19:48;;;;;;;65.85;43.28;;;3.40;99.90;;;;;;5054372;28;20036;-70
2022/03/24 05:22:14;;;;;;;64.57;44.28;;;3.40;99.90;;;;;;5049551;28;20037;-71
2022/03/24 05:24:41;;;;;;;64.07;45.08;;;3.40;99.90;;;;;;5031514;28;20071;-72
2022/03/24 05:27:07;;;;;;;71.93;44.28;;;3.40;99.90;;;;;;5051477;28;20485;-70
2022/03/24 05:29:33;;;;;;;57.75;40.00;;;3.40;99.90;;;;;;5050894;28;20036;-71
2022/03/24 05:31:58;;;;;;;38.10;28.65;;;3.40;99.90;;;;;;5072623;28;20028;-71
2022/03/24 05:34:24;;;;;;;34.72;26.15;;;3.40;99.90;;;;;;5060566;28;20082;-70
2022/03/24 05:36:51;;;;;;;33.72;25.73;;;3.30;99.90;;;;;;5074119;28;20413;-70
2022/03/24 05:39:17;;;;;;;38.08;27.55;;;3.20;99.90;;;;;;5056597;28;20036;-70
2022/03/24 05:41:43;;;;;;;39.78;28.83;;;3.10;99.90;;;;;;5056374;28;20059;-70
2022/03/24 05:44:08;;;;;;;50.60;32.97;;;3.10;99.90;;;;;;5061009;28;20044;-70
2022/03/24 05:46:45;;;;;;;50.25;34.15;;;3.20;99.90;;;;;;5056370;28;20044;-70
2022/03/24 05:49:14;;;;;;;47.65;34.15;;;3.20;99.90;;;;;;5053016;28;20524;-70
2022/03/24 05:51:42;;;;;;;43.97;32.53;;;3.20;99.90;;;;;;5062097;28;20515;-70
2022/03/24 05:54:09;;;;;;;47.72;31.80;;;3.20;99.90;;;;;;5053360;28;20044;-70
2022/03/24 05:56:36;;;;;;;43.35;30.67;;;3.20;99.90;;;;;;5067715;28;20445;-70
2022/03/24 05:59:02;;;;;;;37.45;28.13;;;3.20;99.90;;;;;;5049337;28;20377;-70
2022/03/24 06:01:28;;;;;;;42.80;30.63;;;3.20;99.90;;;;;;5055005;28;20048;-71
2022/03/24 06:03:55;;;;;;;41.67;30.90;;;3.20;99.90;;;;;;5056851;28;20449;-70
2022/03/24 06:06:22;;;;;;;52.75;36.60;;;3.30;99.90;;;;;;5055195;28;22354;-71
2022/03/24 06:08:51;;;;;;;41.03;29.83;;;3.30;99.90;;;;;;5050487;28;20052;-71
2022/03/24 06:11:17;;;;;;;44.88;30.67;;;3.30;99.90;;;;;;5053605;28;20033;-70
2022/03/24 06:13:43;;;;;;;37.75;28.02;;;3.30;99.90;;;;;;5051811;28;20158;-71
2022/03/24 06:16:09;;;;;;;33.75;24.95;;;3.30;99.90;;;;;;5060103;28;20040;-71
2022/03/24 06:18:36;;;;;;;34.28;25.10;;;3.30;99.90;;;;;;5053137;28;20071;-71
2022/03/24 06:21:04;;;;;;;28.20;21.00;;;3.30;99.90;;;;;;5052901;28;20405;-70
2022/03/24 06:23:30;;;;;;;33.95;25.05;;;3.30;99.90;;;;;;5052953;28;20055;-70
2022/03/24 06:25:56;;;;;;;37.80;28.65;;;3.30;99.90;;;;;;5048535;28;20044;-70
2022/03/24 06:28:21;;;;;;;33.10;26.08;;;3.40;99.90;;;;;;5050215;28;20458;-71
2022/03/24 06:30:47;;;;;;;33.08;24.48;;;3.40;99.90;;;;;;5051531;28;20693;-71
2022/03/24 06:33:15;;;;;;;35.05;26.83;;;3.50;99.90;;;;;;5049918;28;20087;-71
2022/03/24 06:35:45;;;;;;;50.22;33.92;;;3.60;99.90;;;;;;5051041;28;20044;-71
2022/03/24 06:38:11;;;;;;;41.10;31.38;;;3.60;99.90;;;;;;5054043;28;20040;-69
2022/03/24 06:40:40;;;;;;;54.10;35.22;;;3.70;99.90;;;;;;5059226;28;20040;-71
2022/03/24 06:43:08;;;;;;;54.22;38.70;;;3.70;99.90;;;;;;5050815;28;20098;-70
2022/03/24 06:45:34;;;;;;;57.28;40.35;;;3.80;99.90;;;;;;5051267;28;20105;-71
2022/03/24 06:48:01;;;;;;;55.05;38.42;;;3.90;99.90;;;;;;5019853;28;20083;-71
2022/03/24 06:50:27;;;;;;;49.42;36.25;;;3.90;99.90;;;;;;5021138;28;20036;-70
2022/03/24 06:52:53;;;;;;;51.08;36.78;;;4.00;99.90;;;;;;5035401;28;20048;-70
2022/03/24 06:55:18;;;;;;;52.50;37.58;;;4.10;99.90;;;;;;5034006;28;20036;-71
2022/03/24 06:57:45;;;;;;;56.33;40.05;;;4.10;99.90;;;;;;5053819;28;20068;-71
2022/03/24 07:00:14;;;;;;;59.90;40.63;;;4.20;99.90;;;;;;5076738;28;20036;-71
2022/03/24 07:02:44;;;;;;;61.20;40.30;;;4.30;99.90;;;;;;5049505;28;20040;-71
2022/03/24 07:05:11;;;;;;;57.00;40.72;;;4.40;99.90;;;;;;5051164;28;20066;-71
2022/03/24 07:07:38;;;;;;;57.50;40.70;;;4.50;99.90;;;;;;5065851;28;20086;-71
2022/03/24 07:10:04;;;;;;;61.10;40.60;;;4.60;99.90;;;;;;5052171;28;20443;-70
2022/03/24 07:12:30;;;;;;;57.40;39.85;;;4.70;99.90;;;;;;5053226;28;20044;-71
2022/03/24 07:14:55;;;;;;;57.08;40.00;;;4.80;99.90;;;;;;5052961;28;20392;-71
2022/03/24 07:17:21;;;;;;;54.22;40.13;;;4.90;99.90;;;;;;5037433;28;20047;-71
2022/03/24 07:19:47;;;;;;;74.15;51.20;;;5.00;99.90;;;;;;5073922;28;20102;-70
2022/03/24 07:22:13;;;;;;;76.50;56.13;;;5.10;99.90;;;;;;5048052;28;20048;-73
2022/03/24 07:24:40;;;;;;;82.13;56.95;;;5.20;99.90;;;;;;5019509;28;20039;-70
2022/03/24 07:27:06;;;;;;;81.22;56.55;;;5.40;99.90;;;;;;5070659;28;20032;-71
2022/03/24 07:29:32;;;;;;;79.60;56.05;;;5.60;99.90;;;;;;5048428;28;20036;-71
2022/03/24 07:31:59;;;;;;;77.80;56.80;;;5.70;99.90;;;;;;5052713;28;20033;-72
2022/03/24 07:34:25;;;;;;;76.22;56.33;;;5.80;99.90;;;;;;5055228;28;20039;-71
2022/03/24 07:36:51;;;;;;;74.18;54.50;;;6.00;99.90;;;;;;5069425;28;21295;-71
2022/03/24 07:39:17;;;;;;;86.97;55.35;;;6.10;99.90;;;;;;5038227;28;20032;-71
2022/03/24 07:41:43;;;;;;;80.47;53.35;;;6.20;99.90;;;;;;5071127;28;20040;-71
2022/03/24 07:44:09;;;;;;;69.35;52.05;;;6.40;99.90;;;;;;5034736;28;20048;-72
2022/03/24 07:46:35;;;;;;;68.15;51.13;;;6.60;99.90;;;;;;5048440;28;20047;-72
2022/03/24 07:49:01;;;;;;;73.60;49.97;;;6.70;99.90;;;;;;5049330;28;20397;-73
2022/03/24 07:51:32;;;;;;;67.10;50.60;;;6.80;99.90;;;;;;5050062;28;20553;-72
2022/03/24 07:54:00;;;;;;;69.03;48.20;;;7.00;99.90;;;;;;5071756;28;20044;-72
2022/03/24 07:56:27;;;;;;;63.35;44.72;;;7.10;99.90;;;;;;5052326;28;20044;-72
2022/03/24 07:58:53;;;;;;;60.03;47.33;;;7.30;99.90;;;;;;5052806;28;20124;-71
2022/03/24 08:01:28;;;;;;;62.67;45.75;;;7.40;99.90;;;;;;5032076;28;20036;-71
2022/03/24 08:03:55;;;;;;;64.63;46.28;;;7.60;99.90;;;;;;5039836;28;20037;-72
2022/03/24 08:06:22;;;;;;;60.65;45.42;;;7.70;99.90;;;;;;5051330;28;20047;-72
2022/03/24 08:08:47;;;;;;;60.80;44.92;;;7.90;99.90;;;;;;5046952;28;20041;-72
2022/03/24 08:11:13;;;;;;;53.72;41.50;;;8.00;99.90;;;;;;5049448;28;20051;-73
2022/03/24 08:13:39;;;;;;;56.58;41.50;;;8.10;99.90;;;;;;5053208;28;20029;-74
2022/03/24 08:16:06;;;;;;;56.30;40.30;;;8.30;99.90;;;;;;5067339;28;20129;-72
2022/03/24 08:18:32;;;;;;;57.53;41.25;;;8.40;99.90;;;;;;5046697;28;20044;-71
2022/03/24 08:20:58;;;;;;;58.88;41.55;;;8.60;99.90;;;;;;5053729;28;20125;-71
2022/03/24 08:23:24;;;;;;;57.58;42.03;;;8.80;99.90;;;;;;5054294;28;20072;-74
2022/03/24 08:25:51;;;;;;;49.25;39.15;;;8.90;99.90;;;;;;5038751;28;20038;-72
2022/03/24 08:28:17;;;;;;;55.65;39.42;;;9.10;99.90;;;;;;5037876;28;20639;-72
2022/03/24 08:30:47;;;;;;;51.75;37.63;;;9.20;99.90;;;;;;5018553;28;20032;-72
2022/03/24 08:33:13;;;;;;;52.92;38.17;;;9.40;99.90;;;;;;5055395;28;20040;-72
2022/03/24 08:35:41;;;;;;;50.70;37.42;;;9.50;99.90;;;;;;5053289;28;20040;-72
2022/03/24 08:38:08;;;;;;;54.60;36.78;;;9.70;99.90;;;;;;5055107;28;20041;-72
2022/03/24 08:40:34;;;;;;;49.33;35.85;;;9.80;99.90;;;;;;5036424;28;20897;-71
2022/03/24 08:43:00;;;;;;;49.67;37.70;;;10.00;99.90;;;;;;5054832;28;20439;-71
2022/03/24 08:45:26;;;;;;;51.17;38.15;;;10.20;99.90;;;;;;5047472;28;20044;-71
2022/03/24 08:47:53;;;;;;;56.40;36.13;;;10.40;99.90;;;;;;5055214;28;20075;-72
2022/03/24 08:50:20;;;;;;;49.17;36.28;;;10.50;99.90;;;;;;5053080;28;20595;-70
2022/03/24 08:52:45;;;;;;;48.22;38.00;;;10.70;99.90;;;;;;5047800;28;20047;-71
2022/03/24 08:55:15;;;;;;;50.97;36.63;;;10.90;99.90;;;;;;5044744;28;20032;-72
2022/03/24 08:57:42;;;;;;;51.03;35.67;;;11.10;99.90;;;;;;5046361;28;20082;-72
2022/03/24 09:00:16;;;;;;;47.00;34.67;;;11.20;99.90;;;;;;5050422;28;20041;-72
2022/03/24 09:02:50;;;;;;;51.00;33.50;;;11.40;99.90;;;;;;5020673;28;20119;-72
2022/03/24 09:05:17;;;;;;;50.38;34.25;;;11.60;99.90;;;;;;5043511;28;20144;-72
2022/03/24 09:07:43;;;;;;;47.03;33.25;;;11.70;99.90;;;;;;5050105;28;20051;-72
2022/03/24 09:10:10;;;;;;;43.22;33.13;;;11.90;99.90;;;;;;5079570;28;20123;-72
2022/03/24 09:12:38;;;;;;;46.25;33.13;;;12.10;99.90;;;;;;5054775;28;20504;-73
2022/03/24 09:15:06;;;;;;;48.33;33.85;;;12.20;99.90;;;;;;5039915;28;20059;-72
2022/03/24 09:17:32;;;;;;;52.05;34.83;;;12.30;99.90;;;;;;5062523;28;20033;-72
2022/03/24 09:19:58;;;;;;;45.85;34.58;;;12.50;99.90;;;;;;5077222;28;22504;-71
2022/03/24 09:22:24;;;;;;;48.05;32.47;;;12.60;99.90;;;;;;5042133;28;20131;-71
2022/03/24 09:24:50;;;;;;;44.22;33.00;;;12.80;99.90;;;;;;5054005;28;20128;-71
2022/03/24 09:27:16;;;;;;;48.42;33.50;;;13.00;99.90;;;;;;5052027;28;20131;-71
2022/03/24 09:29:42;;;;;;;43.97;33.40;;;13.20;99.50;;;;;;5056042;28;20040;-72
2022/03/24 09:32:12;;;;;;;44.80;33.17;;;13.40;98.70;;;;;;5052166;28;20066;-72
2022/03/24 09:34:40;;;;;;;43.55;32.08;;;13.60;98.70;;;;;;5050021;28;20043;-72
2022/03/24 09:37:06;;;;;;;42.75;32.30;;;13.70;96.80;;;;;;5052126;28;20038;-72
2022/03/24 09:39:32;;;;;;;47.05;33.55;;;13.90;97.20;;;;;;5048852;28;20047;-75
2022/03/24 09:41:58;;;;;;;43.33;31.65;;;14.10;96.50;;;;;;5055095;28;20041;-71
2022/03/24 09:44:25;;;;;;;41.53;32.00;;;14.20;94.70;;;;;;5024875;28;20041;-72
2022/03/24 09:46:50;;;;;;;39.58;32.17;;;14.40;94.00;;;;;;5056733;28;20123;-71
2022/03/24 09:49:16;;;;;;;45.05;33.50;;;14.60;93.60;;;;;;5040130;28;20124;-73
2022/03/24 09:51:43;;;;;;;45.03;33.40;;;14.70;90.90;;;;;;5051752;28;20114;-73
2022/03/24 09:54:11;;;;;;;45.03;32.58;;;14.80;90.80;;;;;;5055978;28;20519;-73
2022/03/24 09:56:38;;;;;;;41.72;33.03;;;15.00;86.60;;;;;;5055602;28;20093;-73
2022/03/24 09:59:04;;;;;;;44.10;32.50;;;15.20;83.40;;;;;;5068339;28;20048;-73
2022/03/24 10:01:30;;;;;;;44.40;31.65;;;15.30;82.20;;;;;;5056572;28;20059;-73
2022/03/24 10:04:08;;;;;;;46.72;32.80;;;15.50;79.40;;;;;;5054192;28;20541;-73
2022/03/24 10:06:34;;;;;;;42.78;31.45;;;15.50;78.10;;;;;;5055052;28;20036;-73
2022/03/24 10:09:00;;;;;;;44.40;33.28;;;15.70;74.60;;;;;;5050597;28;20075;-73
2022/03/24 10:11:27;;;;;;;40.40;31.52;;;15.80;73.00;;;;;;5052715;28;20064;-73
2022/03/24 10:13:58;;;;;;;40.92;31.48;;;15.90;71.40;;;;;;5056444;28;20147;-72
2022/03/24 10:16:44;;;;;;;39.67;30.05;;;16.10;71.70;;;;;;5053786;28;20037;-74
2022/03/24 10:19:12;;;;;;;41.63;32.22;;;16.30;70.50;;;;;;5026866;28;20149;-73
2022/03/24 10:21:40;;;;;;;40.95;31.13;;;16.40;69.50;;;;;;5048210;28;20262;-72
2022/03/24 10:24:11;;;;;;;40.95;30.63;;;16.60;67.60;;;;;;5043255;28;20107;-73
2022/03/24 10:27:02;;;;;;;42.08;30.63;;;16.70;66.70;;;;;;5051414;28;20041;-75
2022/03/24 10:29:29;;;;;;;42.05;30.75;;;16.80;65.80;;;;;;5062410;28;20398;-72
2022/03/24 10:32:11;;;;;;;44.63;29.27;;;17.00;65.40;;;;;;5077971;28;20071;-72
2022/03/24 10:34:48;;;;;;;39.38;28.90;;;17.10;62.20;;;;;;5072494;28;20505;-73
2022/03/24 10:37:18;;;;;;;36.50;26.98;;;17.30;61.00;;;;;;5055881;28;20048;-73
2022/03/24 10:39:59;;;;;;;34.03;25.88;;;17.50;59.80;;;;;;5054388;28;20059;-73
2022/03/24 10:42:30;;;;;;;35.95;25.67;;;17.70;58.20;;;;;;5059934;28;20048;-73
2022/03/24 10:45:11;;;;;;;37.92;25.35;;;17.90;57.30;;;;;;5054684;28;20068;-73
2022/03/24 10:47:38;;;;;;;32.95;23.13;;;18.20;55.60;;;;;;5048725;28;20040;-73
2022/03/24 10:50:28;;;;;;;34.08;23.70;;;18.40;52.20;;;;;;5051864;28;20042;-73
2022/03/24 10:52:57;;;;;;;32.50;23.77;;;18.70;51.40;;;;;;5070177;28;20047;-73
2022/03/24 10:55:40;;;;;;;34.78;25.25;;;18.80;50.20;;;;;;5055752;28;20480;-73
2022/03/24 10:58:17;;;;;;;31.92;24.65;;;19.00;50.00;;;;;;5033756;28;20072;-73
2022/03/24 11:00:45;;;;;;;33.85;24.23;;;19.10;49.90;;;;;;5049116;28;20046;-73
2022/03/24 11:03:11;;;;;;;34.08;23.40;;;19.30;48.90;;;;;;5049073;28;20046;-73
2022/03/24 11:05:37;;;;;;;32.30;23.75;;;19.40;48.80;;;;;;5055803;28;20028;-74
2022/03/24 11:08:05;;;;;;;30.17;24.50;;;19.70;44.90;;;;;;5038781;28;20074;-73
2022/03/24 11:10:33;;;;;;;31.48;21.83;;;19.70;45.70;;;;;;5057737;28;20111;-72
2022/03/24 11:13:01;;;;;;;31.75;23.83;;;19.80;45.30;;;;;;5057932;28;20670;-72
2022/03/24 11:15:29;;;;;;;29.77;20.92;;;20.00;45.90;;;;;;5039501;28;20041;-72
2022/03/24 11:17:55;;;;;;;26.08;18.13;;;20.20;44.10;;;;;;5039720;28;20055;-72
2022/03/24 11:20:21;;;;;;;27.08;17.67;;;20.40;43.10;;;;;;5036485;28;20420;-72
2022/03/24 11:22:58;;;;;;;23.80;16.67;;;20.60;42.30;;;;;;5074770;28;20073;-72
2022/03/24 11:25:25;;;;;;;25.05;17.58;;;20.70;41.80;;;;;;5077047;28;20035;-72
2022/03/24 11:27:55;;;;;;;28.48;18.45;;;20.80;40.90;;;;;;5040072;28;20033;-74
2022/03/24 11:30:22;;;;;;;28.88;18.50;;;20.90;41.50;;;;;;5022464;28;20182;-72
2022/03/24 11:32:50;;;;;;;30.50;16.88;;;21.00;43.30;;;;;;5055170;28;20043;-73
2022/03/24 11:35:17;;;;;;;25.38;16.23;;;21.00;42.20;;;;;;5056501;28;20054;-74
2022/03/24 11:37:43;;;;;;;31.38;19.23;;;21.10;42.90;;;;;;5044673;28;20452;-72
2022/03/24 11:40:16;;;;;;;27.17;18.13;;;21.20;42.70;;;;;;5076158;28;20092;-72
2022/03/24 11:43:05;;;;;;;27.35;14.52;;;21.30;42.50;;;;;;5080102;28;20032;-72
2022/03/24 11:45:49;;;;;;;27.30;15.88;;;21.50;40.10;;;;;;5071981;28;20079;-72
2022/03/24 11:48:16;;;;;;;23.95;16.02;;;21.60;40.60;;;;;;5075001;28;20040;-73
2022/03/24 11:50:52;;;;;;;26.23;15.70;;;21.70;40.50;;;;;;5055524;28;20036;-72
2022/03/24 11:53:27;;;;;;;28.48;16.08;;;21.90;37.70;;;;;;5072023;28;20140;-73
2022/03/24 11:55:59;;;;;;;23.85;16.35;;;21.70;40.30;;;;;;5076150;28;20112;-73
2022/03/24 11:58:32;;;;;;;27.23;16.67;;;21.80;39.80;;;;;;5025056;28;20096;-73
2022/03/24 12:01:17;;;;;;;28.15;16.42;;;22.00;38.80;;;;;;5056527;28;20060;-73
2022/03/24 12:03:56;;;;;;;26.30;17.20;;;22.10;40.30;;;;;;5059877;28;20032;-73
2022/03/24 12:13:54;;;;;;;27.92;17.10;;;22.50;40.00;;;;;;5070094;28;20047;-73
2022/03/24 12:16:23;;;;;;;26.95;17.73;;;22.60;40.30;;;;;;5050459;28;20044;-73
2022/03/24 12:18:49;;;;;;;23.63;16.58;;;22.70;37.20;;;;;;5063419;28;20049;-72
2022/03/24 12:21:22;;;;;;;24.58;17.80;;;22.60;39.30;;;;;;5049102;28;20063;-73
2022/03/24 12:24:19;;;;;;;32.25;18.00;;;22.70;39.00;;;;;;5042871;28;20032;-73
2022/03/24 12:26:53;;;;;;;27.23;17.00;;;22.90;37.80;;;;;;5048908;28;20036;-73
2022/03/24 12:29:26;;;;;;;26.40;18.42;;;23.00;36.90;;;;;;5051956;28;20063;-73
2022/03/24 12:32:00;;;;;;;27.92;17.45;;;23.00;37.70;;;;;;5047353;28;20036;-73
2022/03/24 12:34:30;;;;;;;24.95;16.25;;;23.10;37.90;;;;;;5052476;28;20115;-72
2022/03/24 12:36:56;;;;;;;26.25;15.73;;;23.40;37.40;;;;;;5052504;28;20044;-73
2022/03/24 12:39:31;;;;;;;29.40;16.52;;;23.50;37.20;;;;;;5058401;28;20077;-71
2022/03/24 12:42:05;;;;;;;30.63;15.70;;;23.50;37.40;;;;;;5050264;28;20063;-72
2022/03/24 13:01:02;;;;;;;24.02;16.40;;;23.60;36.80;;;;;;5082953;27;20401;-75